Time;durP1;ratioP1;P1;durP2;ratioP2;P2;SDS_P1;SDS_P2;PMS_P1;PMS_P2;Temp;Humidity;BMP_temperature;BMP_pressure;BME280_temperature;BME280_humidity;BME280_pressure;Samples;Min_cycle;Max_cycle;Signal;HPM_P1;HPM_P2
2022/07/12 00:00:45;;;;;;;;;;;21.00;99.90;;;;;;5079739;28;20260;-67
2022/07/12 00:03:11;;;;;;;;;;;20.90;99.90;;;;;;5107462;28;19920;-66
2022/07/12 00:05:36;;;;;;;;;;;20.80;99.90;;;;;;5102897;28;19916;-67
2022/07/12 00:08:02;;;;;;;;;;;20.80;99.90;;;;;;5107120;28;19911;-67
2022/07/12 00:10:28;;;;;;;;;;;20.70;99.90;;;;;;5084634;28;19982;-67
2022/07/12 00:12:54;;;;;;;;;;;20.80;99.90;;;;;;5097192;28;19930;-67
2022/07/12 00:15:20;;;;;;;;;;;20.70;99.90;;;;;;5103264;28;19915;-67
2022/07/12 00:17:45;;;;;;;;;;;20.80;99.90;;;;;;5102252;28;19934;-67
2022/07/12 00:20:11;;;;;;;;;;;20.70;99.90;;;;;;5103867;28;21259;-67
2022/07/12 00:22:36;;;;;;;;;;;20.60;99.90;;;;;;5100472;27;19964;-66
2022/07/12 00:25:02;;;;;;;;;;;20.60;99.90;;;;;;5102497;27;19912;-66
2022/07/12 00:27:28;;;;;;;;;;;20.50;99.90;;;;;;5101035;27;19978;-67
2022/07/12 00:29:54;;;;;;;;;;;20.50;99.90;;;;;;5103532;28;19983;-66
2022/07/12 00:32:20;;;;;;;;;;;20.50;99.90;;;;;;5106495;28;20015;-66
2022/07/12 00:34:45;;;;;;;;;;;20.50;99.90;;;;;;5098040;28;19988;-67
2022/07/12 00:37:11;;;;;;;;;;;20.40;99.90;;;;;;5102581;28;20346;-67
2022/07/12 00:39:36;;;;;;;;;;;20.30;99.90;;;;;;5098038;27;19911;-67
2022/07/12 00:42:02;;;;;;;;;;;20.30;99.90;;;;;;5100034;27;20343;-67
2022/07/12 00:44:30;;;;;;;;;;;20.30;99.90;;;;;;5098523;28;19981;-67
2022/07/12 00:46:56;;;;;;;;;;;20.20;99.90;;;;;;5096334;28;20397;-68
2022/07/12 00:49:22;;;;;;;;;;;20.20;99.90;;;;;;5100734;27;19912;-67
2022/07/12 00:51:48;;;;;;;;;;;20.10;99.90;;;;;;5102885;27;19971;-66
2022/07/12 00:54:15;;;;;;;;;;;19.90;99.90;;;;;;5101104;27;19966;-67
2022/07/12 00:56:40;;;;;;;;;;;19.90;99.90;;;;;;5075829;28;19912;-66
2022/07/12 00:59:06;;;;;;;;;;;19.90;99.90;;;;;;5100904;28;20333;-67
2022/07/12 01:01:31;;;;;;;;;;;19.70;99.90;;;;;;5100835;28;19918;-67
2022/07/12 01:03:57;;;;;;;;;;;19.60;99.90;;;;;;5102918;28;20307;-67
2022/07/12 01:06:23;;;;;;;;;;;19.60;99.90;;;;;;5101183;27;20002;-67
2022/07/12 01:08:49;;;;;;;;;;;19.60;99.90;;;;;;5100416;28;19920;-67
2022/07/12 01:11:15;;;;;;;;;;;19.60;99.90;;;;;;5101721;27;19912;-67
2022/07/12 01:13:41;;;;;;;;;;;19.50;99.90;;;;;;5105806;27;19923;-67
2022/07/12 01:16:07;;;;;;;;;;;19.50;99.90;;;;;;5104251;27;20343;-67
2022/07/12 01:18:33;;;;;;;;;;;19.50;99.90;;;;;;5101589;27;19912;-66
2022/07/12 01:21:02;;;;;;;;;;;19.50;99.90;;;;;;5103528;27;19958;-65
2022/07/12 01:23:28;;;;;;;;;;;19.40;99.90;;;;;;5102100;28;19930;-66
2022/07/12 01:25:54;;;;;;;;;;;19.40;99.90;;;;;;5104471;28;19919;-67
2022/07/12 01:28:20;;;;;;;;;;;19.50;99.90;;;;;;5103745;28;19912;-66
2022/07/12 01:30:46;;;;;;;;;;;19.50;99.90;;;;;;5103786;27;19912;-68
2022/07/12 01:33:12;;;;;;;;;;;19.40;99.90;;;;;;5106131;28;19919;-68
2022/07/12 01:35:38;;;;;;;;;;;19.30;99.90;;;;;;5105220;28;19968;-69
2022/07/12 01:38:03;;;;;;;;;;;19.30;99.90;;;;;;5081214;28;19913;-67
2022/07/12 01:40:29;;;;;;;;;;;19.20;99.90;;;;;;5087857;28;19947;-70
2022/07/12 01:42:55;;;;;;;;;;;19.10;99.90;;;;;;5108033;27;19912;-67
2022/07/12 01:45:21;;;;;;;;;;;19.10;99.90;;;;;;5098714;28;19929;-67
2022/07/12 01:47:47;;;;;;;;;;;19.00;99.90;;;;;;5102602;27;19919;-67
2022/07/12 01:50:12;;;;;;;;;;;19.00;99.90;;;;;;5105044;28;20088;-67
2022/07/12 01:52:39;;;;;;;;;;;18.90;99.90;;;;;;5100449;27;19919;-68
2022/07/12 01:55:05;;;;;;;;;;;18.90;99.90;;;;;;5102261;27;19916;-68
2022/07/12 01:57:32;;;;;;;;;;;18.90;99.90;;;;;;5102062;28;19912;-69
2022/07/12 01:59:57;;;;;;;;;;;18.90;99.90;;;;;;5102735;27;19923;-69
2022/07/12 02:02:26;;;;;;;;;;;18.90;99.90;;;;;;5109409;28;19915;-69
2022/07/12 02:04:52;;;;;;;;;;;19.00;99.90;;;;;;5103445;28;19990;-68
2022/07/12 02:07:18;;;;;;;;;;;18.90;99.90;;;;;;5108029;27;20340;-69
2022/07/12 02:09:43;;;;;;;;;;;18.90;99.90;;;;;;5105901;27;19928;-67
2022/07/12 02:12:09;;;;;;;;;;;18.90;99.90;;;;;;5102398;27;19927;-68
2022/07/12 02:14:35;;;;;;;;;;;18.70;99.90;;;;;;5111625;27;19908;-68
2022/07/12 02:17:00;;;;;;;;;;;18.70;99.90;;;;;;5109450;28;19911;-66
2022/07/12 02:19:26;;;;;;;;;;;18.50;99.90;;;;;;5115397;27;20442;-66
2022/07/12 02:21:51;;;;;;;;;;;18.50;99.90;;;;;;5107967;28;20337;-65
2022/07/12 02:24:17;;;;;;;;;;;18.60;99.90;;;;;;5107499;28;19912;-66
2022/07/12 02:26:43;;;;;;;;;;;18.60;99.90;;;;;;5094833;28;19912;-66
2022/07/12 02:29:09;;;;;;;;;;;18.60;99.90;;;;;;5120091;28;19931;-65
2022/07/12 02:31:34;;;;;;;;;;;18.60;99.90;;;;;;5129887;28;19912;-66
2022/07/12 02:34:00;;;;;;;;;;;18.70;99.90;;;;;;5127579;27;19950;-65
2022/07/12 02:36:26;;;;;;;;;;;18.70;99.90;;;;;;5122201;27;19908;-65
2022/07/12 02:38:51;;;;;;;;;;;18.80;99.90;;;;;;5122723;27;19916;-65
2022/07/12 02:41:17;;;;;;;;;;;18.80;99.90;;;;;;5124325;28;19922;-65
2022/07/12 02:43:43;;;;;;;;;;;18.60;99.90;;;;;;5122577;27;19911;-67
2022/07/12 02:46:09;;;;;;;;;;;18.70;99.90;;;;;;5101202;28;19904;-65
2022/07/12 02:48:35;;;;;;;;;;;18.80;99.90;;;;;;5131170;27;19942;-66
2022/07/12 02:51:01;;;;;;;;;;;18.80;99.90;;;;;;5123320;28;19904;-65
2022/07/12 02:53:27;;;;;;;;;;;18.70;99.90;;;;;;5121982;28;20024;-65
2022/07/12 02:55:52;;;;;;;;;;;18.70;99.90;;;;;;5100612;28;19944;-64
2022/07/12 02:58:18;;;;;;;;;;;18.70;99.90;;;;;;5130503;27;19933;-64
2022/07/12 03:00:47;;;;;;;;;;;18.60;99.90;;;;;;5128658;27;19904;-65
2022/07/12 03:03:12;;;;;;;;;;;18.60;99.90;;;;;;5123465;28;19919;-64
2022/07/12 03:05:39;;;;;;;;;;;18.50;99.90;;;;;;5115482;28;19930;-64
2022/07/12 03:08:05;;;;;;;;;;;18.50;99.90;;;;;;5105331;28;20361;-64
2022/07/12 03:10:30;;;;;;;;;;;18.40;99.90;;;;;;5108433;28;20416;-64
2022/07/12 03:12:56;;;;;;;;;;;18.40;99.90;;;;;;5113513;28;19929;-65
2022/07/12 03:15:21;;;;;;;;;;;18.30;99.90;;;;;;5116069;28;19926;-65
2022/07/12 03:17:47;;;;;;;;;;;18.40;99.90;;;;;;5110744;28;19912;-65
2022/07/12 03:20:14;;;;;;;;;;;18.30;99.90;;;;;;5125257;28;19927;-65
2022/07/12 03:22:40;;;;;;;;;;;18.20;99.90;;;;;;5126808;28;19916;-65
2022/07/12 03:25:07;;;;;;;;;;;18.10;99.90;;;;;;5128987;28;19918;-66
2022/07/12 03:27:32;;;;;;;;;;;18.10;99.90;;;;;;5123000;27;19923;-65
2022/07/12 03:29:58;;;;;;;;;;;18.20;99.90;;;;;;5111316;28;19912;-65
2022/07/12 03:32:23;;;;;;;;;;;18.10;99.90;;;;;;5120542;28;19975;-65
2022/07/12 03:34:49;;;;;;;;;;;18.10;99.90;;;;;;5121678;27;19916;-65
2022/07/12 03:37:15;;;;;;;;;;;18.10;99.90;;;;;;5121721;28;20780;-65
2022/07/12 03:39:40;;;;;;;;;;;18.20;99.90;;;;;;5133643;28;19990;-65
2022/07/12 03:42:06;;;;;;;;;;;18.20;99.90;;;;;;5125754;28;19900;-64
2022/07/12 03:44:31;;;;;;;;;;;18.20;99.90;;;;;;5135841;27;19934;-65
2022/07/12 03:46:58;;;;;;;;;;;18.20;99.90;;;;;;5126130;27;19916;-65
2022/07/12 03:49:23;;;;;;;;;;;18.10;99.90;;;;;;5122435;27;19924;-65
2022/07/12 03:51:49;;;;;;;;;;;18.10;99.90;;;;;;5129172;27;20049;-66
2022/07/12 03:54:14;;;;;;;;;;;18.00;99.90;;;;;;5129654;27;19935;-66
2022/07/12 03:59:24;;;;;;;;;;;18.20;99.90;;;;;;5105982;27;20015;-66
2022/07/12 04:01:50;;;;;;;;;;;18.40;99.90;;;;;;5123053;27;20169;-64
2022/07/12 04:04:15;;;;;;;;;;;18.40;99.90;;;;;;5114150;28;19985;-64
2022/07/12 04:06:41;;;;;;;;;;;18.40;99.90;;;;;;5115233;27;19912;-66
2022/07/12 04:09:07;;;;;;;;;;;18.50;99.90;;;;;;5121889;28;19934;-66
2022/07/12 04:11:33;;;;;;;;;;;18.50;99.90;;;;;;5118690;27;19928;-65
2022/07/12 04:13:58;;;;;;;;;;;18.50;99.90;;;;;;5121667;27;19916;-64
2022/07/12 04:16:24;;;;;;;;;;;18.60;99.90;;;;;;5122811;28;19934;-64
2022/07/12 04:18:50;;;;;;;;;;;18.70;99.90;;;;;;5104330;27;19912;-64
2022/07/12 04:21:15;;;;;;;;;;;18.80;99.90;;;;;;5108287;27;20006;-63
2022/07/12 04:23:41;;;;;;;;;;;19.00;99.90;;;;;;5107904;27;19915;-63
2022/07/12 04:26:06;;;;;;;;;;;19.00;99.90;;;;;;5087032;28;19955;-64
2022/07/12 04:28:32;;;;;;;;;;;19.10;99.90;;;;;;5117464;27;19923;-64
2022/07/12 04:30:57;;;;;;;;;;;19.20;99.90;;;;;;5117613;28;19929;-64
2022/07/12 04:33:23;;;;;;;;;;;19.10;99.90;;;;;;5110230;27;20358;-64
2022/07/12 04:35:49;;;;;;;;;;;19.10;99.90;;;;;;5122215;27;19911;-65
2022/07/12 04:38:14;;;;;;;;;;;19.10;99.90;;;;;;5115531;28;19908;-64
2022/07/12 04:40:40;;;;;;;;;;;19.10;99.90;;;;;;5106996;27;19912;-64
2022/07/12 04:43:05;;;;;;;;;;;19.30;99.90;;;;;;5087900;28;19920;-63
2022/07/12 04:45:31;;;;;;;;;;;19.40;99.90;;;;;;5112019;27;19961;-64
2022/07/12 04:47:56;;;;;;;;;;;19.50;99.90;;;;;;5106847;28;19919;-64
2022/07/12 04:50:22;;;;;;;;;;;19.40;99.90;;;;;;5106542;28;20290;-64
2022/07/12 04:52:47;;;;;;;;;;;19.10;99.90;;;;;;5106081;28;19923;-63
2022/07/12 04:55:13;;;;;;;;;;;19.00;99.90;;;;;;5105060;28;19962;-64
2022/07/12 04:57:39;;;;;;;;;;;18.90;99.90;;;;;;5099003;28;19919;-64
2022/07/12 05:00:05;;;;;;;;;;;18.90;99.90;;;;;;5104512;28;19916;-64
2022/07/12 05:02:32;;;;;;;;;;;18.90;99.90;;;;;;5107231;28;19919;-63
2022/07/12 05:04:57;;;;;;;;;;;18.80;99.90;;;;;;5081787;28;20023;-64
2022/07/12 05:07:23;;;;;;;;;;;18.80;99.90;;;;;;5075664;28;20014;-64
2022/07/12 05:09:48;;;;;;;;;;;18.90;99.90;;;;;;5109503;27;19927;-64
2022/07/12 05:12:14;;;;;;;;;;;18.80;99.90;;;;;;5102622;28;19920;-65
2022/07/12 05:14:39;;;;;;;;;;;18.80;99.90;;;;;;5106995;28;20049;-64
2022/07/12 05:17:05;;;;;;;;;;;19.10;99.90;;;;;;5101399;28;19927;-64
2022/07/12 05:19:30;;;;;;;;;;;19.40;99.90;;;;;;5086540;28;20365;-65
2022/07/12 05:21:56;;;;;;;;;;;19.50;99.90;;;;;;5109305;28;19980;-63
2022/07/12 05:24:22;;;;;;;;;;;19.50;99.90;;;;;;5104715;28;20274;-64
2022/07/12 05:26:48;;;;;;;;;;;19.60;99.90;;;;;;5104150;27;19919;-64
2022/07/12 05:29:14;;;;;;;;;;;19.80;99.90;;;;;;5104084;27;19931;-64
2022/07/12 05:31:39;;;;;;;;;;;19.60;99.90;;;;;;5100411;27;19927;-65
2022/07/12 05:34:05;;;;;;;;;;;19.50;99.90;;;;;;5100716;28;20011;-64
2022/07/12 05:36:31;;;;;;;;;;;19.40;99.90;;;;;;5105306;28;19915;-65
2022/07/12 05:38:56;;;;;;;;;;;19.50;99.90;;;;;;5108195;27;20346;-64
2022/07/12 05:41:22;;;;;;;;;;;19.60;99.90;;;;;;5104121;28;20323;-64
2022/07/12 05:43:47;;;;;;;;;;;19.60;99.90;;;;;;5100502;27;19983;-63
2022/07/12 05:46:13;;;;;;;;;;;19.60;99.90;;;;;;5102041;28;19912;-65
2022/07/12 05:48:39;;;;;;;;;;;19.80;99.90;;;;;;5097686;28;19915;-64
2022/07/12 05:53:49;;;;;;;;;;;20.00;99.90;;;;;;5104110;28;19935;-65
2022/07/12 05:56:14;;;;;;;;;;;19.80;99.90;;;;;;5105093;28;19911;-64
2022/07/12 05:58:40;;;;;;;;;;;19.60;99.90;;;;;;5099960;28;19919;-63
2022/07/12 06:01:06;;;;;;;;;;;19.60;99.90;;;;;;5103634;27;19927;-64
2022/07/12 06:03:32;;;;;;;;;;;19.60;99.90;;;;;;5111075;28;19912;-64
2022/07/12 06:05:57;;;;;;;;;;;19.60;99.90;;;;;;5101104;27;19919;-65
2022/07/12 06:08:23;;;;;;;;;;;19.70;99.90;;;;;;5105210;28;19919;-65
2022/07/12 06:10:48;;;;;;;;;;;19.70;99.90;;;;;;5101454;27;19951;-64
2022/07/12 06:13:14;;;;;;;;;;;19.70;99.90;;;;;;5084601;28;19965;-65
2022/07/12 06:15:40;;;;;;;;;;;19.90;99.90;;;;;;5107721;27;19918;-66
2022/07/12 06:18:05;;;;;;;;;;;19.90;99.90;;;;;;5100139;28;19920;-64
2022/07/12 06:20:31;;;;;;;;;;;19.90;99.90;;;;;;5106312;27;19927;-64
2022/07/12 06:22:56;;;;;;;;;;;20.00;99.90;;;;;;5097594;27;19954;-65
2022/07/12 06:25:23;;;;;;;;;;;20.10;99.90;;;;;;5107969;28;20242;-64
2022/07/12 06:27:49;;;;;;;;;;;20.10;99.90;;;;;;5108830;28;19997;-65
2022/07/12 06:30:18;;;;;;;;;;;20.10;99.90;;;;;;5110936;27;19920;-65
2022/07/12 06:32:44;;;;;;;;;;;20.30;99.90;;;;;;5099479;27;20511;-64
2022/07/12 06:35:10;;;;;;;;;;;20.50;99.90;;;;;;5106517;27;19982;-64
2022/07/12 06:37:35;;;;;;;;;;;20.50;99.90;;;;;;5105141;27;20377;-65
2022/07/12 06:40:01;;;;;;;;;;;20.60;99.90;;;;;;5105187;28;19996;-64
2022/07/12 06:42:26;;;;;;;;;;;20.40;99.90;;;;;;5108139;28;19912;-65
2022/07/12 06:44:52;;;;;;;;;;;20.40;99.90;;;;;;5104857;28;19973;-64
2022/07/12 06:47:18;;;;;;;;;;;20.50;99.90;;;;;;5097621;28;21049;-64
2022/07/12 06:49:43;;;;;;;;;;;20.40;99.90;;;;;;5085411;28;19920;-64
2022/07/12 06:52:09;;;;;;;;;;;20.30;99.90;;;;;;5100067;28;19924;-64
2022/07/12 06:54:34;;;;;;;;;;;20.50;99.90;;;;;;5106256;28;20354;-64
2022/07/12 06:57:00;;;;;;;;;;;20.70;99.90;;;;;;5105612;28;19991;-64
2022/07/12 06:59:26;;;;;;;;;;;20.80;99.90;;;;;;5106338;28;19933;-64
2022/07/12 07:01:52;;;;;;;;;;;20.90;99.90;;;;;;5104922;27;20034;-65
2022/07/12 07:04:17;;;;;;;;;;;20.90;99.90;;;;;;5103431;28;19969;-65
2022/07/12 07:06:43;;;;;;;;;;;20.90;99.90;;;;;;5086325;28;19912;-65
2022/07/12 07:09:09;;;;;;;;;;;21.10;99.90;;;;;;5088131;28;19927;-65
2022/07/12 07:11:35;;;;;;;;;;;21.30;99.90;;;;;;5098713;28;19990;-65
2022/07/12 07:14:00;;;;;;;;;;;21.30;99.90;;;;;;5083485;28;19920;-65
2022/07/12 07:16:26;;;;;;;;;;;21.30;99.90;;;;;;5105396;28;20278;-65
2022/07/12 07:18:52;;;;;;;;;;;21.30;99.90;;;;;;5098772;28;19927;-65
2022/07/12 07:21:17;;;;;;;;;;;21.40;99.90;;;;;;5095703;28;19912;-64
2022/07/12 07:23:43;;;;;;;;;;;21.50;99.90;;;;;;5102239;28;20058;-65
2022/07/12 07:26:09;;;;;;;;;;;21.70;99.90;;;;;;5102297;28;19911;-64
2022/07/12 07:30:51;;;;;;;;;;;21.80;99.90;;;;;;5087090;28;19973;-66
2022/07/12 07:31:20;;;;;;;;;;;22.10;99.90;;;;;;5085095;28;20320;-65
2022/07/12 07:33:46;;;;;;;;;;;22.40;99.90;;;;;;5107933;28;19981;-65
2022/07/12 07:36:11;;;;;;;;;;;22.30;99.90;;;;;;5113686;28;19912;-66
2022/07/12 07:38:37;;;;;;;;;;;22.40;99.90;;;;;;5101504;28;19912;-65
2022/07/12 07:41:02;;;;;;;;;;;22.60;99.90;;;;;;5112189;28;19928;-65
2022/07/12 07:43:28;;;;;;;;;;;22.70;99.90;;;;;;5129087;28;19971;-65
2022/07/12 07:45:54;;;;;;;;;;;22.80;99.90;;;;;;5116338;28;20319;-65
2022/07/12 07:48:20;;;;;;;;;;;22.90;99.90;;;;;;5096826;28;19912;-65
2022/07/12 07:50:45;;;;;;;;;;;23.00;99.90;;;;;;5114818;28;19979;-65
2022/07/12 07:53:11;;;;;;;;;;;23.10;99.90;;;;;;5118337;28;19976;-64
2022/07/12 07:55:37;;;;;;;;;;;23.20;99.90;;;;;;5095246;28;19939;-65
2022/07/12 07:58:02;;;;;;;;;;;23.30;99.90;;;;;;5114880;28;19929;-65
2022/07/12 08:00:28;;;;;;;;;;;23.20;99.90;;;;;;5113351;27;19943;-64
2022/07/12 08:02:57;;;;;;;;;;;23.30;99.90;;;;;;5096078;28;19916;-66
2022/07/12 08:05:22;;;;;;;;;;;23.40;99.90;;;;;;5097441;28;20354;-64
2022/07/12 08:07:48;;;;;;;;;;;23.50;99.90;;;;;;5098837;28;19965;-64
2022/07/12 08:10:13;;;;;;;;;;;23.80;99.90;;;;;;5103828;28;19985;-64
2022/07/12 08:12:39;;;;;;;;;;;24.10;99.90;;;;;;5083672;28;19926;-65
2022/07/12 08:15:06;;;;;;;;;;;24.30;99.70;;;;;;5105742;28;19998;-64
2022/07/12 08:17:31;;;;;;;;;;;24.20;99.90;;;;;;5108922;28;20533;-64
2022/07/12 08:19:57;;;;;;;;;;;24.20;99.40;;;;;;5121154;28;20062;-64
2022/07/12 08:22:22;;;;;;;;;;;24.40;98.90;;;;;;5130395;27;19974;-64
2022/07/12 08:24:48;;;;;;;;;;;24.40;95.20;;;;;;5121588;28;19911;-63
2022/07/12 08:27:14;;;;;;;;;;;24.70;96.00;;;;;;5125393;28;19904;-65
2022/07/12 08:29:40;;;;;;;;;;;24.80;95.00;;;;;;5119679;27;22953;-64
2022/07/12 08:32:07;;;;;;;;;;;24.90;94.20;;;;;;5119415;27;20484;-64
2022/07/12 08:34:33;;;;;;;;;;;24.90;94.00;;;;;;5112383;27;19979;-64
2022/07/12 08:36:59;;;;;;;;;;;24.80;93.90;;;;;;5128630;27;19911;-65
2022/07/12 08:39:25;;;;;;;;;;;24.80;94.80;;;;;;5128433;27;19919;-64
2022/07/12 08:41:51;;;;;;;;;;;24.80;95.50;;;;;;5124980;28;20010;-65
2022/07/12 08:44:16;;;;;;;;;;;24.80;94.70;;;;;;5110043;27;19926;-65
2022/07/12 08:46:42;;;;;;;;;;;25.00;94.50;;;;;;5115590;27;19945;-65
2022/07/12 08:49:07;;;;;;;;;;;25.00;95.60;;;;;;5089391;28;19980;-64
2022/07/12 08:51:33;;;;;;;;;;;25.00;95.30;;;;;;5097641;27;19951;-64
2022/07/12 08:54:05;;;;;;;;;;;25.20;95.00;;;;;;5108346;27;20909;-64
2022/07/12 08:56:41;;;;;;;;;;;25.40;93.40;;;;;;5122369;27;19976;-63
2022/07/12 08:59:11;;;;;;;;;;;25.70;92.30;;;;;;5126351;27;19911;-64
2022/07/12 09:01:47;;;;;;;;;;;26.10;91.20;;;;;;5106528;27;19924;-65
2022/07/12 09:04:13;;;;;;;;;;;26.40;90.00;;;;;;5108630;27;19920;-65
2022/07/12 09:06:39;;;;;;;;;;;26.70;83.10;;;;;;5115119;28;20360;-65
2022/07/12 09:09:04;;;;;;;;;;;26.90;80.90;;;;;;5109916;28;19996;-65
2022/07/12 09:11:30;;;;;;;;;;;26.90;80.00;;;;;;5100986;27;20018;-64
2022/07/12 09:13:56;;;;;;;;;;;27.10;79.50;;;;;;5106986;28;19920;-65
2022/07/12 09:16:23;;;;;;;;;;;27.40;78.40;;;;;;5107186;27;19919;-64
2022/07/12 09:18:49;;;;;;;;;;;27.50;76.40;;;;;;5105563;27;19912;-65
2022/07/12 09:21:25;;;;;;;;;;;27.40;76.70;;;;;;5080877;28;19916;-65
2022/07/12 09:23:55;;;;;;;;;;;27.40;76.70;;;;;;5109734;28;19963;-65
2022/07/12 09:26:21;;;;;;;;;;;27.60;76.20;;;;;;5093073;28;19939;-64
2022/07/12 09:28:48;;;;;;;;;;;27.70;75.00;;;;;;5102737;28;20476;-65
2022/07/12 09:31:14;;;;;;;;;;;27.80;75.00;;;;;;5103126;28;20019;-64
2022/07/12 09:36:24;;;;;;;;;;;27.60;75.40;;;;;;5105685;28;19970;-64
2022/07/12 09:38:54;;;;;;;;;;;27.50;76.00;;;;;;5127935;27;19904;-63
2022/07/12 09:41:23;;;;;;;;;;;27.70;75.60;;;;;;5122111;27;19949;-64
2022/07/12 09:43:49;;;;;;;;;;;27.90;75.10;;;;;;5108428;28;19938;-63
2022/07/12 09:46:16;;;;;;;;;;;28.00;74.80;;;;;;5125304;27;19904;-64
2022/07/12 09:48:42;;;;;;;;;;;28.00;73.60;;;;;;5104277;28;19904;-64
2022/07/12 09:51:08;;;;;;;;;;;28.10;74.10;;;;;;5123920;28;19943;-64
2022/07/12 09:53:53;;;;;;;;;;;28.00;73.10;;;;;;5123628;27;19975;-64
2022/07/12 09:56:22;;;;;;;;;;;27.90;73.30;;;;;;5102569;28;19924;-63
2022/07/12 09:58:54;;;;;;;;;;;28.20;72.90;;;;;;5122249;27;20878;-64
2022/07/12 10:01:20;;;;;;;;;;;28.30;72.00;;;;;;5127729;27;19912;-64
2022/07/12 10:03:47;;;;;;;;;;;28.20;72.00;;;;;;5127356;27;19927;-64
2022/07/12 10:06:17;;;;;;;;;;;28.40;71.50;;;;;;5106786;28;19908;-64
2022/07/12 10:08:43;;;;;;;;;;;28.60;71.30;;;;;;5122154;27;19915;-64
2022/07/12 10:11:12;;;;;;;;;;;28.80;70.70;;;;;;5124700;27;19975;-64
2022/07/12 10:13:38;;;;;;;;;;;28.70;70.50;;;;;;5120943;28;19920;-64
2022/07/12 10:16:04;;;;;;;;;;;28.60;70.70;;;;;;5121817;27;19931;-64
2022/07/12 10:18:29;;;;;;;;;;;28.70;70.20;;;;;;5119470;28;19916;-64
2022/07/12 10:20:55;;;;;;;;;;;28.80;70.10;;;;;;5126251;28;19904;-64
2022/07/12 10:23:30;;;;;;;;;;;29.00;69.70;;;;;;5128307;28;19934;-64
2022/07/12 10:25:55;;;;;;;;;;;29.30;69.00;;;;;;5127118;28;19971;-63
2022/07/12 10:28:21;;;;;;;;;;;29.10;69.00;;;;;;5121705;28;19920;-63
2022/07/12 10:30:50;;;;;;;;;;;29.40;68.30;;;;;;5125144;28;19954;-63
2022/07/12 10:33:15;;;;;;;;;;;29.30;68.10;;;;;;5120163;28;19932;-64
2022/07/12 10:35:57;;;;;;;;;;;29.30;68.40;;;;;;5111342;28;19976;-66
2022/07/12 10:38:22;;;;;;;;;;;29.20;66.50;;;;;;5101041;28;19912;-65
2022/07/12 10:40:49;;;;;;;;;;;29.20;66.40;;;;;;5089965;28;20328;-65
2022/07/12 10:43:16;;;;;;;;;;;28.90;66.70;;;;;;5098088;28;19912;-64
2022/07/12 10:45:45;;;;;;;;;;;28.90;66.90;;;;;;5107033;28;19956;-64
2022/07/12 10:48:14;;;;;;;;;;;28.80;67.60;;;;;;5097477;28;19983;-65
2022/07/12 10:53:23;;;;;;;;;;;28.80;67.80;;;;;;5096780;28;19924;-65
2022/07/12 10:56:06;;;;;;;;;;;29.10;66.60;;;;;;5107232;28;20253;-65
2022/07/12 10:58:34;;;;;;;;;;;29.40;66.20;;;;;;5102027;28;20312;-65
2022/07/12 11:01:00;;;;;;;;;;;29.30;66.30;;;;;;5099269;28;19958;-65
2022/07/12 11:03:40;;;;;;;;;;;29.10;66.40;;;;;;5103422;28;19927;-64
2022/07/12 11:06:06;;;;;;;;;;;29.00;66.10;;;;;;5104972;28;20168;-66
2022/07/12 11:08:34;;;;;;;;;;;29.00;66.40;;;;;;5106796;28;20299;-66
2022/07/12 11:11:00;;;;;;;;;;;29.10;66.80;;;;;;5099805;28;19976;-65
2022/07/12 11:13:26;;;;;;;;;;;29.40;66.70;;;;;;5116468;28;20073;-64
2022/07/12 11:15:57;;;;;;;;;;;29.50;66.10;;;;;;5114371;28;19915;-65
2022/07/12 11:18:29;;;;;;;;;;;29.50;66.00;;;;;;5110011;28;19916;-64
2022/07/12 11:20:56;;;;;;;;;;;29.50;66.10;;;;;;5110380;28;19928;-63
2022/07/12 11:23:22;;;;;;;;;;;29.20;67.30;;;;;;5099000;28;19916;-64
2022/07/12 11:25:48;;;;;;;;;;;29.50;66.70;;;;;;5114627;28;19966;-64
2022/07/12 11:28:13;;;;;;;;;;;29.50;66.10;;;;;;5114634;28;20057;-63
2022/07/12 11:30:47;;;;;;;;;;;29.30;66.30;;;;;;5103149;28;20794;-64
2022/07/12 11:33:13;;;;;;;;;;;29.00;67.10;;;;;;5109764;28;19930;-65
2022/07/12 11:35:38;;;;;;;;;;;29.10;67.20;;;;;;5118337;28;19916;-64
2022/07/12 11:38:04;;;;;;;;;;;29.20;69.00;;;;;;5121000;28;19916;-63
2022/07/12 11:40:30;;;;;;;;;;;29.50;66.50;;;;;;5126084;28;19904;-65
2022/07/12 11:42:59;;;;;;;;;;;29.70;66.50;;;;;;5122539;28;19967;-64
2022/07/12 11:45:26;;;;;;;;;;;29.60;67.10;;;;;;5125546;28;19905;-63
2022/07/12 11:47:52;;;;;;;;;;;29.60;68.20;;;;;;5130529;28;19911;-63
2022/07/12 11:50:18;;;;;;;;;;;29.70;67.70;;;;;;5120893;28;19959;-63
2022/07/12 11:52:44;;;;;;;;;;;29.30;68.10;;;;;;5122033;27;19912;-64
2022/07/12 11:55:10;;;;;;;;;;;29.20;69.30;;;;;;5115211;27;19976;-63
2022/07/12 11:57:35;;;;;;;;;;;29.10;69.30;;;;;;5113200;27;19969;-64
2022/07/12 12:00:20;;;;;;;;;;;29.20;69.70;;;;;;5103778;28;19923;-64
2022/07/12 12:02:50;;;;;;;;;;;29.50;69.10;;;;;;5107131;28;19988;-64
2022/07/12 12:05:16;;;;;;;;;;;29.90;68.90;;;;;;5111080;28;19912;-65
2022/07/12 12:07:41;;;;;;;;;;;30.00;68.10;;;;;;5106101;28;19991;-65
2022/07/12 12:10:14;;;;;;;;;;;30.30;67.60;;;;;;5112915;28;20266;-65
2022/07/12 12:12:45;;;;;;;;;;;30.70;66.90;;;;;;5113013;28;19919;-66
2022/07/12 12:15:12;;;;;;;;;;;30.80;65.80;;;;;;5106083;28;19916;-65
2022/07/12 12:17:43;;;;;;;;;;;30.60;65.90;;;;;;5111383;28;19912;-64
2022/07/12 12:20:10;;;;;;;;;;;30.60;66.10;;;;;;5096845;28;19916;-64
2022/07/12 12:22:36;;;;;;;;;;;30.60;66.50;;;;;;5105637;28;20278;-64
2022/07/12 12:25:03;;;;;;;;;;;31.00;65.20;;;;;;5116420;27;19916;-64
2022/07/12 12:27:30;;;;;;;;;;;31.30;64.70;;;;;;5110066;27;20053;-64
2022/07/12 12:30:04;;;;;;;;;;;31.10;64.70;;;;;;5121542;27;19958;-65
2022/07/12 12:32:30;;;;;;;;;;;30.90;65.30;;;;;;5104551;28;19971;-65
2022/07/12 12:35:05;;;;;;;;;;;30.90;65.30;;;;;;5118112;27;19916;-64
2022/07/12 12:37:31;;;;;;;;;;;31.20;65.00;;;;;;5094414;28;19976;-64
2022/07/12 12:39:57;;;;;;;;;;;31.20;65.00;;;;;;5124427;28;19916;-65
2022/07/12 12:42:25;;;;;;;;;;;31.30;64.30;;;;;;5120789;28;19938;-65
2022/07/12 12:44:51;;;;;;;;;;;31.40;64.00;;;;;;5102245;28;19916;-65
2022/07/12 12:47:32;;;;;;;;;;;31.20;65.10;;;;;;5094496;27;19916;-66
2022/07/12 12:50:00;;;;;;;;;;;31.20;64.60;;;;;;5104883;27;19920;-66
2022/07/12 12:52:26;;;;;;;;;;;31.20;65.10;;;;;;5101507;28;20435;-66
2022/07/12 12:54:52;;;;;;;;;;;30.90;65.20;;;;;;5099690;28;19922;-65
2022/07/12 12:57:18;;;;;;;;;;;30.80;65.70;;;;;;5082060;28;19915;-66
2022/07/12 12:59:43;;;;;;;;;;;30.70;66.30;;;;;;5101143;28;19935;-64
2022/07/12 13:02:09;;;;;;;;;;;30.60;66.70;;;;;;5109559;28;20397;-65
2022/07/12 13:04:35;;;;;;;;;;;30.50;66.30;;;;;;5109507;27;19991;-64
2022/07/12 13:07:01;;;;;;;;;;;30.40;67.30;;;;;;5099818;28;20006;-65
2022/07/12 13:09:28;;;;;;;;;;;30.30;67.30;;;;;;5096275;27;20370;-64
2022/07/12 13:11:54;;;;;;;;;;;30.50;66.70;;;;;;5109757;28;21822;-66
2022/07/12 13:14:20;;;;;;;;;;;30.60;65.00;;;;;;5102150;28;19912;-65
2022/07/12 13:16:46;;;;;;;;;;;30.50;64.50;;;;;;5086888;28;20019;-65
2022/07/12 13:19:11;;;;;;;;;;;30.20;65.50;;;;;;5104089;27;20264;-65
2022/07/12 13:21:37;;;;;;;;;;;30.30;65.40;;;;;;5102877;28;19953;-65
2022/07/12 13:24:02;;;;;;;;;;;30.50;64.50;;;;;;5108646;28;20357;-65
2022/07/12 13:26:29;;;;;;;;;;;30.60;64.50;;;;;;5086675;28;19912;-65
2022/07/12 13:28:54;;;;;;;;;;;30.40;64.30;;;;;;5106068;27;19997;-64
2022/07/12 13:31:20;;;;;;;;;;;30.10;63.50;;;;;;5102419;28;20219;-68
2022/07/12 13:33:46;;;;;;;;;;;29.70;64.30;;;;;;5102812;27;20331;-69
2022/07/12 13:36:12;;;;;;;;;;;29.50;68.70;;;;;;5081225;28;20688;-69
2022/07/12 13:38:38;;;;;;;;;;;29.40;65.50;;;;;;5101054;27;19912;-70
2022/07/12 13:41:04;;;;;;;;;;;29.40;66.80;;;;;;5096230;28;20294;-69
2022/07/12 13:43:29;;;;;;;;;;;29.40;65.10;;;;;;5093438;28;20506;-69
2022/07/12 13:45:55;;;;;;;;;;;29.40;65.70;;;;;;5097987;27;19922;-70
2022/07/12 13:48:21;;;;;;;;;;;29.90;66.90;;;;;;5102135;28;19919;-70
2022/07/12 13:50:47;;;;;;;;;;;30.20;66.00;;;;;;5102550;27;19918;-69
2022/07/12 13:53:13;;;;;;;;;;;30.00;63.40;;;;;;5079444;28;20360;-68
2022/07/12 13:55:41;;;;;;;;;;;30.10;65.40;;;;;;5105691;28;19911;-69
2022/07/12 13:58:07;;;;;;;;;;;30.20;64.80;;;;;;5100875;28;19915;-68
2022/07/12 14:00:33;;;;;;;;;;;30.50;64.70;;;;;;5099543;27;19913;-69
2022/07/12 14:02:58;;;;;;;;;;;30.90;63.30;;;;;;5097998;28;19912;-69
2022/07/12 14:05:24;;;;;;;;;;;30.70;63.10;;;;;;5097637;28;19920;-69
2022/07/12 14:07:50;;;;;;;;;;;30.50;63.40;;;;;;5098964;27;19916;-67
2022/07/12 14:10:16;;;;;;;;;;;29.90;64.50;;;;;;5100581;28;19916;-69
2022/07/12 14:12:42;;;;;;;;;;;29.60;64.50;;;;;;5082306;28;19923;-68
2022/07/12 14:15:14;;;;;;;;;;;29.50;65.70;;;;;;5096973;27;19912;-67
2022/07/12 14:17:59;;;;;;;;;;;29.60;66.00;;;;;;5097945;28;19912;-68
2022/07/12 14:20:25;;;;;;;;;;;29.70;65.10;;;;;;5097554;28;19912;-69
2022/07/12 14:22:52;;;;;;;;;;;29.70;65.30;;;;;;5100722;28;20239;-68